Главная страница
METAR-TAF:

METAR-TAF

Аэропорты :

Король Абдул-Азиз

Джидда, Саудовская Аравия

широта: 21-42N, долгота: 039-11E, высота над уровнем моря: 15 м

Текущие метеонаблюдения

Эта сводка был подготовлена 49 минут назад, в 22:00 UTC
Ветер 6 Узел от северный
Температура 24°C
Влажность 61%
Давление 1016 hPa
Видимость 10 км и более
Нет облачности ниже 1500 м, и нет кучево-дождевой облачности

METAR: OEJN 092200Z 36006KT CAVOK 24/16 Q1016 NOSIG

Время: 01:49 (22:49 UTC)

Прогноз

Эта сводка был подготовлена 5 часа и 49 минут назад, в 17:00 UTC
Прогноз действительный с 09-го 18 UTC до 10-го 24 UTC
Ветер 8 Узел от северо-северо-восточный
Видимость 10 км и более
небольшая облачность на высоте 4000 фута
изменения
С 10-го 08 UTC до 10-го 10 UTC
Ветер 14 Узел от северо-западный

TAF: OEJN 091700Z 0918/1024 02008KT 9999 FEW040 BECMG 1008/1010 32014KT

Метеонаблюдения и прогнозы для более 4000 аэропортов (сводки METAR и TAF).

Имеющиеся станции представлены на карте желтыми и красными точками.

Чтобы увидеть название станции, наведите на нее мышь.

Затем щелкните, чтобы увидеть метеонаблюдения и метеопрогнозы.

Управление картой: чтобы увеличить масштаб, щелкните зеленые кнопки с черным крестиком; чтобы уменьшить масштаб, щелкните зеленую кнопку с тире; для просмотра соседних карт щелкайте зеленые стрелки.


METAR-TAF: